11 augustus 2022

Tijd Code Weer Temp. Zicht Plafond Wind METAR/SPECI
19:00
V
37 °C 10 km+ - 310° 310° 6 kt METAR LFSL 111700Z AUTO 31006KT 270V350 CAVOK 37/10 Q1013 NOSIG
18:30
V
37 °C 10 km+ - 320° 320° 6 kt METAR LFSL 111630Z AUTO 32006KT 210V010 CAVOK 37/11 Q1013 NOSIG
18:00
V
37 °C 10 km+ - Var Var 5 kt METAR LFSL 111600Z AUTO VRB05KT CAVOK 37/11 Q1013 NOSIG
17:30
V
37 °C 10 km+ - 280° 280° 7 kt METAR LFSL 111530Z AUTO 28007KT 210V340 CAVOK 37/11 Q1013 NOSIG
17:00
V
37 °C 10 km+ - Var Var 4 kt METAR LFSL 111500Z AUTO VRB04KT CAVOK 37/11 Q1013 NOSIG
16:30
V
37 °C 10 km+ - Var Var 3 kt METAR LFSL 111430Z AUTO VRB03KT CAVOK 37/11 Q1014 NOSIG
16:00
V
37 °C 9 km - Var Var 5 kt METAR LFSL 111400Z AUTO VRB05KT 9000 NSC 37/13 Q1014 NOSIG
15:30
V
37 °C 10 km+ - Var Var 5 kt METAR LFSL 111330Z AUTO VRB05KT CAVOK 37/12 Q1014 NOSIG
15:00
V
36 °C 10 km+ - 130° 130° 5 kt METAR LFSL 111300Z AUTO 13005KT 070V180 CAVOK 36/13 Q1014 NOSIG
14:30
V
35 °C 10 km+ - 160° 160° 6 kt METAR LFSL 111230Z AUTO 16006KT 070V230 CAVOK 35/12 Q1015 NOSIG
14:00
V
35 °C 10 km+ - Var Var 5 kt METAR LFSL 111200Z AUTO VRB05KT CAVOK 35/12 Q1015 NOSIG
13:30
V
34 °C 10 km+ - 190° 190° 5 kt METAR LFSL 111130Z AUTO 19005KT 140V260 CAVOK 34/13 Q1015 NOSIG
13:00
V
33 °C 10 km+ - 130° 130° 4 kt METAR LFSL 111100Z AUTO 13004KT 040V200 CAVOK 33/14 Q1016 NOSIG
12:30
V
33 °C 10 km+ - Var Var 4 kt METAR LFSL 111030Z AUTO VRB04KT CAVOK 33/14 Q1016 NOSIG
12:00
V
32 °C 10 km+ - Var Var 5 kt METAR LFSL 111000Z AUTO VRB05KT CAVOK 32/14 Q1016 NOSIG
11:30
V
31 °C 10 km+ - 140° 140° 6 kt METAR LFSL 110930Z AUTO 14006KT 090V200 CAVOK 31/13 Q1016 NOSIG
11:00
V
30 °C 10 km+ - 150° 150° 6 kt METAR LFSL 110900Z AUTO 15006KT 090V210 CAVOK 30/12 Q1016 NOSIG
10:30
V
28 °C 10 km+ - 140° 140° 6 kt METAR LFSL 110830Z AUTO 14006KT 090V190 CAVOK 28/12 Q1016 NOSIG
10:00
V
27 °C 10 km+ - 110° 110° 6 kt METAR LFSL 110800Z AUTO 11006KT 070V130 CAVOK 27/11 Q1016 NOSIG
09:30
V
26 °C 10 km+ - 120° 120° 6 kt METAR LFSL 110730Z AUTO 12006KT CAVOK 26/11 Q1016 NOSIG
09:00
V
25 °C 10 km+ - 120° 120° 7 kt METAR LFSL 110700Z AUTO 12007KT CAVOK 25/11 Q1016 NOSIG
08:30
V
24 °C 10 km+ - 120° 120° 6 kt METAR LFSL 110630Z AUTO 12006KT CAVOK 24/10 Q1016 NOSIG
08:00
V
20 °C 10 km+ - Var 000° 0 kt METAR LFSL 110600Z AUTO 00000KT CAVOK 20/10 Q1016 NOSIG
07:30
V
17 °C 10 km+ - Var 000° 0 kt METAR LFSL 110530Z AUTO 00000KT CAVOK 17/09 Q1016 NOSIG
07:00
V
17 °C 10 km+ - Var 000° 0 kt METAR LFSL 110500Z AUTO 00000KT CAVOK 17/09 Q1016 NOSIG
06:30
V
18 °C 10 km+ - Var 000° 0 kt METAR LFSL 110430Z AUTO 00000KT CAVOK 18/09 Q1016 NOSIG
06:00
V
18 °C 10 km+ - 140° 140° 1 kt METAR LFSL 110400Z AUTO 14001KT CAVOK 18/09 Q1015 NOSIG
05:30
V
20 °C 10 km+ - Var 000° 0 kt METAR LFSL 110330Z AUTO 00000KT CAVOK 20/09 Q1016 NOSIG
05:00
V
21 °C 10 km+ - 130° 130° 3 kt METAR LFSL 110300Z AUTO 13003KT CAVOK 21/09 Q1015
04:30
V
22 °C 10 km+ - 120° 120° 4 kt METAR LFSL 110230Z AUTO 12004KT CAVOK 22/09 Q1015
04:00
V
22 °C 10 km+ - 120° 120° 6 kt METAR LFSL 110200Z AUTO 12006KT CAVOK 22/09 Q1015
03:30
V
19 °C 10 km+ - 130° 130° 5 kt METAR LFSL 110130Z AUTO 13005KT CAVOK 19/09 Q1015
03:00
V
18 °C 10 km+ - Var 000° 0 kt METAR LFSL 110100Z AUTO 00000KT CAVOK 18/09 Q1015
02:30
V
19 °C 10 km+ - Var 000° 0 kt METAR LFSL 110030Z AUTO 00000KT CAVOK 19/09 Q1015
02:00
V
20 °C 10 km+ - Var 000° 0 kt METAR LFSL 110000Z AUTO 00000KT CAVOK 20/09 Q1015
01:30
V
20 °C 10 km+ - Var Var 2 kt METAR LFSL 102330Z AUTO VRB02KT CAVOK 20/09 Q1015
01:00
V
21 °C 10 km+ - Var 000° 0 kt METAR LFSL 102300Z AUTO 00000KT CAVOK 21/09 Q1015
00:30
V
22 °C 10 km+ - Var 000° 0 kt METAR LFSL 102230Z AUTO 00000KT CAVOK 22/08 Q1015
00:00
V
22 °C 10 km+ - Var 000° 0 kt METAR LFSL 102200Z AUTO 00000KT CAVOK 22/09 Q1015

10 augustus 2022

Tijd Code Weer Temp. Zicht Plafond Wind METAR/SPECI
23:30
V
24 °C 10 km+ - Var Var 2 kt METAR LFSL 102130Z AUTO VRB02KT CAVOK 24/09 Q1015
23:00
V
27 °C 10 km+ - Var Var 3 kt METAR LFSL 102100Z AUTO VRB03KT CAVOK 27/09 Q1015
22:30
V
29 °C 10 km+ - 360° 360° 4 kt METAR LFSL 102030Z AUTO 36004KT CAVOK 29/08 Q1015
22:00
V
30 °C 10 km+ - 360° 360° 7 kt METAR LFSL 102000Z AUTO 36007KT CAVOK 30/07 Q1015 NOSIG
21:30
V
28 °C 10 km+ - 330° 330° 3 kt METAR LFSL 101930Z AUTO 33003KT 300V020 CAVOK 28/05 Q1015 NOSIG
21:00
V
32 °C 10 km+ - Var Var 2 kt METAR LFSL 101900Z AUTO VRB02KT CAVOK 32/06 Q1014 NOSIG
20:30
V
34 °C 10 km+ - 320° 320° 5 kt METAR LFSL 101830Z AUTO 32005KT CAVOK 34/04 Q1015 NOSIG
20:00
V
35 °C 10 km+ - 330° 330° 7 kt METAR LFSL 101800Z AUTO 33007KT 300V010 CAVOK 35/04 Q1014 NOSIG
19:30
V
36 °C 10 km+ - 340° 340° 7 kt METAR LFSL 101730Z AUTO 34007KT 310V020 CAVOK 36/05 Q1014 NOSIG
19:00
V
36 °C 10 km+ - 330° 330° 6 kt METAR LFSL 101700Z AUTO 33006KT 290V360 CAVOK 36/06 Q1014 NOSIG
18:30
V
36 °C 10 km+ - 360° 360° 5 kt METAR LFSL 101630Z AUTO 36005KT 270V030 CAVOK 36/06 Q1014 NOSIG
18:00
V
36 °C 10 km+ - 340° 340° 8 kt METAR LFSL 101600Z AUTO 34008KT 290V010 CAVOK 36/06 Q1015 NOSIG
17:30
V
37 °C 10 km+ - Var Var 4 kt METAR LFSL 101530Z AUTO VRB04KT CAVOK 37/07 Q1015 NOSIG
17:00
V
36 °C 10 km+ - Var Var 4 kt METAR LFSL 101500Z AUTO VRB04KT CAVOK 36/07 Q1015 NOSIG
16:30
V
36 °C 10 km+ - 350° 350° 6 kt METAR LFSL 101430Z AUTO 35006KT 290V060 CAVOK 36/07 Q1015 NOSIG
16:00
V
37 °C 10 km+ - Var Var 3 kt METAR LFSL 101400Z AUTO VRB03KT CAVOK 37/07 Q1016 NOSIG
15:30
V
36 °C 10 km+ - 210° 210° 7 - 17 kt METAR LFSL 101330Z AUTO 21007G17KT 170V300 CAVOK 36/06 Q1016 NOSIG
15:00
V
35 °C 10 km+ - Var Var 3 kt METAR LFSL 101300Z AUTO VRB03KT CAVOK 35/07 Q1016 NOSIG
14:30
V
35 °C 10 km+ - Var Var 5 kt METAR LFSL 101230Z AUTO VRB05KT CAVOK 35/06 Q1016 NOSIG
14:00
V
35 °C 10 km+ - Var Var 4 kt METAR LFSL 101200Z AUTO VRB04KT CAVOK 35/06 Q1017 NOSIG
13:30
V
34 °C 10 km+ - 080° 080° 5 kt METAR LFSL 101130Z AUTO 08005KT 350V130 CAVOK 34/07 Q1017 NOSIG
13:00
V
33 °C 10 km+ - Var Var 5 kt METAR LFSL 101100Z AUTO VRB05KT CAVOK 33/07 Q1017 NOSIG
12:30
V
32 °C 10 km+ - Var Var 3 kt METAR LFSL 101030Z AUTO VRB03KT CAVOK 32/09 Q1017 NOSIG
12:00
V
32 °C 10 km+ - Var Var 4 kt METAR LFSL 101000Z AUTO VRB04KT CAVOK 32/09 Q1017 NOSIG
11:30
V
31 °C 10 km+ - 130° 130° 5 kt METAR LFSL 100930Z AUTO 13005KT 040V210 CAVOK 31/09 Q1018 NOSIG
11:00
V
29 °C 10 km+ - 120° 120° 3 kt METAR LFSL 100900Z AUTO 12003KT 070V140 CAVOK 29/08 Q1018 NOSIG
10:30
V
29 °C 10 km+ - 090° 090° 5 kt METAR LFSL 100830Z AUTO 09005KT 020V160 CAVOK 29/09 Q1018 NOSIG
10:00
V
28 °C 10 km+ - 090° 090° 6 kt METAR LFSL 100800Z AUTO 09006KT 060V120 CAVOK 28/09 Q1018 NOSIG
09:30
V
27 °C 10 km+ - 120° 120° 5 kt METAR LFSL 100730Z AUTO 12005KT 090V150 CAVOK 27/09 Q1018 NOSIG
09:00
V
26 °C 10 km+ - Var Var 3 kt METAR LFSL 100700Z AUTO VRB03KT CAVOK 26/09 Q1018 NOSIG
08:30
V
22 °C 10 km+ - Var 000° 0 kt METAR LFSL 100630Z AUTO 00000KT CAVOK 22/09 Q1018 NOSIG
08:00
V
20 °C 10 km+ - Var 000° 0 kt METAR LFSL 100600Z AUTO 00000KT CAVOK 20/09 Q1018 NOSIG
07:30
V
16 °C 10 km+ - Var 000° 0 kt METAR LFSL 100530Z AUTO 00000KT CAVOK 16/08 Q1018 NOSIG
07:00
V
15 °C 10 km+ - Var 000° 0 kt METAR LFSL 100500Z AUTO 00000KT CAVOK 15/08 Q1018 NOSIG
06:30
V
15 °C 10 km+ - Var Var 2 kt METAR LFSL 100430Z AUTO VRB02KT CAVOK 15/08 Q1018 NOSIG
06:00
V
15 °C 10 km+ - 210° 210° 1 kt METAR LFSL 100400Z AUTO 21001KT CAVOK 15/08 Q1017 NOSIG
05:30
V
16 °C 10 km+ - Var Var 1 kt METAR LFSL 100330Z AUTO VRB01KT CAVOK 16/08 Q1018 NOSIG
05:00
V
16 °C 10 km+ - Var 000° 0 kt METAR LFSL 100300Z AUTO 00000KT CAVOK 16/08 Q1018 NOSIG
04:30
V
16 °C 10 km+ - Var 000° 0 kt METAR LFSL 100230Z AUTO 00000KT CAVOK 16/08 Q1018
04:00
V
17 °C 10 km+ - Var 000° 0 kt METAR LFSL 100200Z AUTO 00000KT CAVOK 17/08 Q1018
03:30
V
18 °C 10 km+ - 300° 300° 1 kt METAR LFSL 100130Z AUTO 30001KT CAVOK 18/08 Q1018
03:00
V
19 °C 10 km+ - Var Var 1 kt METAR LFSL 100100Z AUTO VRB01KT CAVOK 19/08 Q1018
02:30
V
21 °C 10 km+ - Var Var 1 kt METAR LFSL 100030Z AUTO VRB01KT CAVOK 21/08 Q1018
02:00
V
24 °C 10 km+ - 360° 360° 5 kt METAR LFSL 100000Z AUTO 36005KT CAVOK 24/08 Q1018
01:30
V
24 °C 10 km+ - 360° 360° 5 kt METAR LFSL 092330Z AUTO 36005KT CAVOK 24/08 Q1018
01:00
V
25 °C 10 km+ - 360° 360° 5 kt METAR LFSL 092300Z AUTO 36005KT CAVOK 25/08 Q1018
00:30
V
25 °C 10 km+ - 010° 010° 5 kt METAR LFSL 092230Z AUTO 01005KT CAVOK 25/08 Q1018
00:00
V
24 °C 10 km+ - 360° 360° 4 kt METAR LFSL 092200Z AUTO 36004KT CAVOK 24/08 Q1018

9 augustus 2022

Tijd Code Weer Temp. Zicht Plafond Wind METAR/SPECI
23:30
V
24 °C 10 km+ - 350° 350° 3 kt METAR LFSL 092130Z AUTO 35003KT CAVOK 24/08 Q1019
23:00
V
26 °C 10 km+ - 360° 360° 4 kt METAR LFSL 092100Z AUTO 36004KT CAVOK 26/08 Q1019
22:30
V
26 °C 10 km+ - 360° 360° 4 kt METAR LFSL 092030Z AUTO 36004KT CAVOK 26/08 Q1019
22:00
V
27 °C 10 km+ - 360° 360° 3 kt METAR LFSL 092000Z AUTO 36003KT CAVOK 27/07 Q1018 NOSIG
21:30
V
29 °C 10 km+ - 010° 010° 3 kt METAR LFSL 091930Z AUTO 01003KT CAVOK 29/07 Q1018 NOSIG
21:00
V
31 °C 10 km+ - 020° 020° 6 kt METAR LFSL 091900Z AUTO 02006KT CAVOK 31/07 Q1018 NOSIG
20:30
V
32 °C 10 km+ - 040° 040° 9 kt METAR LFSL 091830Z AUTO 04009KT 360V080 CAVOK 32/06 Q1018 NOSIG
20:00
V
33 °C 10 km+ - 050° 050° 9 kt METAR LFSL 091800Z AUTO 05009KT 020V080 CAVOK 33/06 Q1017 NOSIG
19:30
V
34 °C 10 km+ - 030° 030° 10 kt METAR LFSL 091730Z AUTO 03010KT 340V070 CAVOK 34/05 Q1017 NOSIG
19:00
V
35 °C 10 km+ - 040° 040° 8 kt METAR LFSL 091700Z AUTO 04008KT 360V090 CAVOK 35/07 Q1017 NOSIG
18:30
V
35 °C 10 km+ - 010° 010° 8 kt METAR LFSL 091630Z AUTO 01008KT 310V050 CAVOK 35/07 Q1017 NOSIG
18:00
V
35 °C 10 km+ - Var Var 4 kt METAR LFSL 091600Z AUTO VRB04KT CAVOK 35/06 Q1017 NOSIG
17:30
V
35 °C 10 km+ - 350° 350° 8 kt METAR LFSL 091530Z AUTO 35008KT 310V050 CAVOK 35/06 Q1017 NOSIG
17:00
V
35 °C 10 km+ - 080° 080° 6 kt METAR LFSL 091500Z AUTO 08006KT 350V160 CAVOK 35/05 Q1018 NOSIG
Oudere gegevens

Met cookies volgen wij en derde partijen jouw internetgedrag binnen onze site. Als je verdergaat gaan we ervan uit dat je dit goedvindt. Meer info